sensor_id;sensor_type;location;lat;lon;timestamp;pressure;altitude;pressure_sealevel;temperature;humidity
39699;BME280;25372;50.582;12.250;2023-04-21T00:05:10;99947.63;;;2.67;93.22
39699;BME280;25372;50.582;12.250;2023-04-21T00:15:33;99934.31;;;2.47;92.43
39699;BME280;25372;50.582;12.250;2023-04-21T00:25:54;99931.91;;;2.41;92.19
39699;BME280;25372;50.582;12.250;2023-04-21T00:36:17;99934.19;;;2.52;92.37
39699;BME280;25372;50.582;12.250;2023-04-21T00:46:38;99919.84;;;2.40;92.34
39699;BME280;25372;50.582;12.250;2023-04-21T00:57:00;99920.00;;;2.34;91.91
39699;BME280;25372;50.582;12.250;2023-04-21T01:07:24;99920.53;;;2.45;92.13
39699;BME280;25372;50.582;12.250;2023-04-21T01:17:46;99905.00;;;2.45;92.20
39699;BME280;25372;50.582;12.250;2023-04-21T01:28:09;99908.97;;;2.27;92.49
39699;BME280;25372;50.582;12.250;2023-04-21T01:38:30;99908.81;;;2.33;92.59
39699;BME280;25372;50.582;12.250;2023-04-21T01:48:53;99887.16;;;2.03;91.66
39699;BME280;25372;50.582;12.250;2023-04-21T01:59:14;99896.16;;;1.89;92.18
39699;BME280;25372;50.582;12.250;2023-04-21T02:09:36;99891.63;;;1.98;92.39
39699;BME280;25372;50.582;12.250;2023-04-21T02:19:57;99874.88;;;1.78;92.13
39699;BME280;25372;50.582;12.250;2023-04-21T02:30:19;99875.56;;;1.85;91.63
39699;BME280;25372;50.582;12.250;2023-04-21T02:40:40;99883.13;;;1.59;92.20
39699;BME280;25372;50.582;12.250;2023-04-21T02:51:03;99884.09;;;1.55;92.38
39699;BME280;25372;50.582;12.250;2023-04-21T03:01:25;99882.28;;;1.59;92.15
39699;BME280;25372;50.582;12.250;2023-04-21T03:11:47;99883.19;;;1.58;92.29
39699;BME280;25372;50.582;12.250;2023-04-21T03:22:07;99885.78;;;1.21;91.98
39699;BME280;25372;50.582;12.250;2023-04-21T03:32:30;99876.63;;;1.44;92.48
39699;BME280;25372;50.582;12.250;2023-04-21T03:42:51;99876.69;;;1.05;93.04
39699;BME280;25372;50.582;12.250;2023-04-21T03:53:13;99890.81;;;0.91;92.45
39699;BME280;25372;50.582;12.250;2023-04-21T04:03:34;99901.69;;;1.06;92.18
39699;BME280;25372;50.582;12.250;2023-04-21T04:13:56;99909.75;;;0.92;91.99
39699;BME280;25372;50.582;12.250;2023-04-21T04:24:17;99918.78;;;1.11;92.55
39699;BME280;25372;50.582;12.250;2023-04-21T04:34:39;99917.72;;;1.57;92.52
39699;BME280;25372;50.582;12.250;2023-04-21T04:45:00;99906.47;;;1.58;92.75
39699;BME280;25372;50.582;12.250;2023-04-21T04:55:22;99907.88;;;2.03;93.54
39699;BME280;25372;50.582;12.250;2023-04-21T05:05:44;99913.09;;;2.34;93.54
39699;BME280;25372;50.582;12.250;2023-04-21T05:16:07;99922.66;;;2.91;93.53
39699;BME280;25372;50.582;12.250;2023-04-21T05:26:29;99928.22;;;6.54;94.44
39699;BME280;25372;50.582;12.250;2023-04-21T05:36:51;99931.25;;;6.83;86.74
39699;BME280;25372;50.582;12.250;2023-04-21T05:47:12;99927.69;;;5.21;89.43
39699;BME280;25372;50.582;12.250;2023-04-21T05:57:34;99922.19;;;5.07;90.72
39699;BME280;25372;50.582;12.250;2023-04-21T06:07:55;99913.78;;;5.43;88.80
39699;BME280;25372;50.582;12.250;2023-04-21T06:18:17;99912.38;;;5.77;90.54
39699;BME280;25372;50.582;12.250;2023-04-21T06:28:38;99895.66;;;6.23;87.42
39699;BME280;25372;50.582;12.250;2023-04-21T06:39:00;99899.84;;;6.65;88.88
39699;BME280;25372;50.582;12.250;2023-04-21T06:49:23;99902.25;;;7.44;82.71
39699;BME280;25372;50.582;12.250;2023-04-21T06:59:45;99892.09;;;7.73;85.88
39699;BME280;25372;50.582;12.250;2023-04-21T07:10:06;99887.78;;;8.57;78.61
39699;BME280;25372;50.582;12.250;2023-04-21T07:20:29;99889.53;;;8.88;79.41
39699;BME280;25372;50.582;12.250;2023-04-21T07:30:49;99865.47;;;9.59;73.16
39699;BME280;25372;50.582;12.250;2023-04-21T07:41:12;99873.00;;;10.38;68.68
39699;BME280;25372;50.582;12.250;2023-04-21T07:51:34;99863.22;;;10.69;68.59
39699;BME280;25372;50.582;12.250;2023-04-21T08:01:56;99848.69;;;11.31;64.57
39699;BME280;25372;50.582;12.250;2023-04-21T08:12:17;99830.63;;;11.91;62.64
39699;BME280;25372;50.582;12.250;2023-04-21T08:22:39;99834.34;;;12.52;56.39
39699;BME280;25372;50.582;12.250;2023-04-21T08:33:00;99834.47;;;13.10;55.07
39699;BME280;25372;50.582;12.250;2023-04-21T08:43:22;99819.56;;;13.58;55.13
39699;BME280;25372;50.582;12.250;2023-04-21T08:53:43;99813.03;;;14.42;50.82
39699;BME280;25372;50.582;12.250;2023-04-21T09:04:16;99811.53;;;15.47;47.96
39699;BME280;25372;50.582;12.250;2023-04-21T09:14:37;99801.41;;;17.25;40.00
39699;BME280;25372;50.582;12.250;2023-04-21T09:24:59;99800.72;;;16.13;42.29
39699;BME280;25372;50.582;12.250;2023-04-21T09:35:20;99788.56;;;16.00;41.98
39699;BME280;25372;50.582;12.250;2023-04-21T09:45:42;99776.25;;;16.30;43.24
39699;BME280;25372;50.582;12.250;2023-04-21T09:56:05;99769.97;;;16.31;39.77
39699;BME280;25372;50.582;12.250;2023-04-21T10:06:31;99782.97;;;16.64;39.18
39699;BME280;25372;50.582;12.250;2023-04-21T10:16:55;99760.38;;;16.80;38.58
39699;BME280;25372;50.582;12.250;2023-04-21T10:27:30;99752.00;;;16.94;36.93
39699;BME280;25372;50.582;12.250;2023-04-21T10:37:51;99743.66;;;17.46;37.38
39699;BME280;25372;50.582;12.250;2023-04-21T10:48:13;99730.81;;;17.80;40.47
39699;BME280;25372;50.582;12.250;2023-04-21T10:58:34;99731.06;;;16.91;37.08
39699;BME280;25372;50.582;12.250;2023-04-21T11:08:58;99736.19;;;17.32;38.58
39699;BME280;25372;50.582;12.250;2023-04-21T11:19:18;99733.22;;;17.45;36.87
39699;BME280;25372;50.582;12.250;2023-04-21T11:29:45;99710.94;;;17.28;36.85
39699;BME280;25372;50.582;12.250;2023-04-21T11:40:07;99716.63;;;17.33;37.36
39699;BME280;25372;50.582;12.250;2023-04-21T11:50:30;99719.34;;;16.94;39.35
39699;BME280;25372;50.582;12.250;2023-04-21T12:00:52;99705.16;;;17.98;39.36
39699;BME280;25372;50.582;12.250;2023-04-21T12:11:16;99707.34;;;18.49;38.89
39699;BME280;25372;50.582;12.250;2023-04-21T12:21:37;99690.44;;;19.21;36.04
39699;BME280;25372;50.582;12.250;2023-04-21T12:31:59;99685.00;;;18.60;36.50
39699;BME280;25372;50.582;12.250;2023-04-21T12:42:20;99677.66;;;19.25;37.61
39699;BME280;25372;50.582;12.250;2023-04-21T12:52:43;99675.34;;;19.30;36.18
39699;BME280;25372;50.582;12.250;2023-04-21T13:03:04;99670.41;;;18.91;36.21
39699;BME280;25372;50.582;12.250;2023-04-21T13:13:26;99658.81;;;19.18;36.24
39699;BME280;25372;50.582;12.250;2023-04-21T13:23:47;99656.38;;;19.68;35.18
39699;BME280;25372;50.582;12.250;2023-04-21T13:34:10;99646.56;;;19.77;34.29
39699;BME280;25372;50.582;12.250;2023-04-21T13:44:31;99632.00;;;19.97;31.76
39699;BME280;25372;50.582;12.250;2023-04-21T13:54:53;99615.69;;;20.42;31.86
39699;BME280;25372;50.582;12.250;2023-04-21T14:05:14;99598.69;;;22.88;29.02
39699;BME280;25372;50.582;12.250;2023-04-21T14:15:37;99582.69;;;23.25;27.44
39699;BME280;25372;50.582;12.250;2023-04-21T14:25:58;99582.38;;;22.29;30.03
39699;BME280;25372;50.582;12.250;2023-04-21T14:36:22;99586.00;;;21.90;30.36
39699;BME280;25372;50.582;12.250;2023-04-21T14:46:44;99565.56;;;22.89;30.55
39699;BME280;25372;50.582;12.250;2023-04-21T14:57:06;99561.44;;;24.19;28.81
39699;BME280;25372;50.582;12.250;2023-04-21T15:07:27;99554.59;;;22.99;28.43
39699;BME280;25372;50.582;12.250;2023-04-21T15:17:49;99549.28;;;22.07;31.76
39699;BME280;25372;50.582;12.250;2023-04-21T15:28:11;99548.44;;;21.60;31.35
39699;BME280;25372;50.582;12.250;2023-04-21T15:38:33;99557.28;;;21.69;34.04
39699;BME280;25372;50.582;12.250;2023-04-21T15:48:54;99541.53;;;21.74;33.82
39699;BME280;25372;50.582;12.250;2023-04-21T15:59:16;99539.28;;;21.54;34.21
39699;BME280;25372;50.582;12.250;2023-04-21T16:09:37;99534.03;;;19.58;36.08
39699;BME280;25372;50.582;12.250;2023-04-21T16:20:00;99531.50;;;18.70;39.93
39699;BME280;25372;50.582;12.250;2023-04-21T16:30:22;99525.09;;;17.66;40.43
39699;BME280;25372;50.582;12.250;2023-04-21T16:40:44;99532.75;;;17.23;41.93
39699;BME280;25372;50.582;12.250;2023-04-21T16:51:05;99522.56;;;18.45;41.30
39699;BME280;25372;50.582;12.250;2023-04-21T17:01:27;99519.75;;;17.01;44.01
39699;BME280;25372;50.582;12.250;2023-04-21T17:11:48;99519.06;;;16.52;44.91
39699;BME280;25372;50.582;12.250;2023-04-21T17:22:10;99515.09;;;16.28;43.28
39699;BME280;25372;50.582;12.250;2023-04-21T17:32:31;99517.47;;;15.82;44.80
39699;BME280;25372;50.582;12.250;2023-04-21T17:42:53;99522.88;;;15.41;45.45
39699;BME280;25372;50.582;12.250;2023-04-21T17:53:14;99526.41;;;14.48;49.34
39699;BME280;25372;50.582;12.250;2023-04-21T18:03:36;99532.47;;;14.17;49.44
39699;BME280;25372;50.582;12.250;2023-04-21T18:13:59;99543.41;;;13.47;51.04
39699;BME280;25372;50.582;12.250;2023-04-21T18:24:21;99549.41;;;13.26;50.53
39699;BME280;25372;50.582;12.250;2023-04-21T18:34:42;99548.09;;;12.52;52.58
39699;BME280;25372;50.582;12.250;2023-04-21T18:45:06;99557.78;;;11.80;57.62
39699;BME280;25372;50.582;12.250;2023-04-21T18:55:26;99556.47;;;11.86;55.07
39699;BME280;25372;50.582;12.250;2023-04-21T19:05:51;99557.31;;;11.62;55.20
39699;BME280;25372;50.582;12.250;2023-04-21T19:16:12;99565.63;;;11.31;55.79
39699;BME280;25372;50.582;12.250;2023-04-21T19:26:36;99560.88;;;10.73;57.63
39699;BME280;25372;50.582;12.250;2023-04-21T19:36:57;99559.16;;;9.93;66.65
39699;BME280;25372;50.582;12.250;2023-04-21T19:47:19;99562.66;;;8.95;70.32
39699;BME280;25372;50.582;12.250;2023-04-21T19:57:40;99576.22;;;8.73;72.84
39699;BME280;25372;50.582;12.250;2023-04-21T20:08:02;99561.47;;;8.41;69.32
39699;BME280;25372;50.582;12.250;2023-04-21T20:18:23;99565.94;;;8.70;66.50
39699;BME280;25372;50.582;12.250;2023-04-21T20:28:45;99571.44;;;8.65;64.81
39699;BME280;25372;50.582;12.250;2023-04-21T20:39:06;99562.34;;;8.25;72.01
39699;BME280;25372;50.582;12.250;2023-04-21T20:49:29;99578.06;;;7.95;73.39
39699;BME280;25372;50.582;12.250;2023-04-21T20:59:49;99583.31;;;7.79;74.62
39699;BME280;25372;50.582;12.250;2023-04-21T21:10:11;99594.28;;;7.53;76.61
39699;BME280;25372;50.582;12.250;2023-04-21T21:20:32;99594.69;;;7.30;75.93
39699;BME280;25372;50.582;12.250;2023-04-21T21:30:55;99597.63;;;7.72;73.22
39699;BME280;25372;50.582;12.250;2023-04-21T21:41:15;99609.78;;;7.56;72.54
39699;BME280;25372;50.582;12.250;2023-04-21T21:51:39;99624.94;;;7.34;76.87
39699;BME280;25372;50.582;12.250;2023-04-21T22:01:59;99613.75;;;6.98;78.50
39699;BME280;25372;50.582;12.250;2023-04-21T22:12:21;99624.84;;;6.68;80.18
39699;BME280;25372;50.582;12.250;2023-04-21T22:22:42;99623.25;;;6.48;80.58
39699;BME280;25372;50.582;12.250;2023-04-21T22:33:04;99633.97;;;6.24;81.52
39699;BME280;25372;50.582;12.250;2023-04-21T22:43:25;99631.94;;;6.11;80.90
39699;BME280;25372;50.582;12.250;2023-04-21T22:53:48;99646.06;;;5.69;83.27
39699;BME280;25372;50.582;12.250;2023-04-21T23:04:09;99639.31;;;5.45;84.52
39699;BME280;25372;50.582;12.250;2023-04-21T23:14:31;99651.50;;;5.45;83.67
39699;BME280;25372;50.582;12.250;2023-04-21T23:24:52;99648.66;;;5.30;83.49
39699;BME280;25372;50.582;12.250;2023-04-21T23:35:14;99642.16;;;5.01;84.30
39699;BME280;25372;50.582;12.250;2023-04-21T23:45:35;99642.81;;;4.85;85.62
39699;BME280;25372;50.582;12.250;2023-04-21T23:55:57;99627.53;;;4.57;84.04
